sensor_id;sensor_type;location;lat;lon;timestamp;pressure;altitude;pressure_sealevel;temperature;humidity
13867;BME280;7003;46.982;15.248;2023-07-24T00:00:35;96970.09;;;19.02;100.00
13867;BME280;7003;46.982;15.248;2023-07-24T00:03:02;96975.06;;;18.93;100.00
13867;BME280;7003;46.982;15.248;2023-07-24T00:05:29;96980.09;;;18.95;100.00
13867;BME280;7003;46.982;15.248;2023-07-24T00:07:56;96980.50;;;18.97;100.00
13867;BME280;7003;46.982;15.248;2023-07-24T00:10:23;96984.69;;;18.98;100.00
13867;BME280;7003;46.982;15.248;2023-07-24T00:12:50;96977.38;;;18.91;100.00
13867;BME280;7003;46.982;15.248;2023-07-24T00:15:17;96983.50;;;18.70;100.00
13867;BME280;7003;46.982;15.248;2023-07-24T00:17:48;96982.75;;;18.73;100.00
13867;BME280;7003;46.982;15.248;2023-07-24T00:20:15;96984.66;;;18.76;100.00
13867;BME280;7003;46.982;15.248;2023-07-24T00:22:44;96990.44;;;18.71;100.00
13867;BME280;7003;46.982;15.248;2023-07-24T00:25:11;96978.88;;;18.71;100.00
13867;BME280;7003;46.982;15.248;2023-07-24T00:27:41;96993.81;;;18.54;100.00
13867;BME280;7003;46.982;15.248;2023-07-24T00:30:08;96978.00;;;18.38;100.00
13867;BME280;7003;46.982;15.248;2023-07-24T00:32:39;96978.38;;;18.44;100.00
13867;BME280;7003;46.982;15.248;2023-07-24T00:35:09;96976.50;;;18.55;100.00
13867;BME280;7003;46.982;15.248;2023-07-24T00:37:39;96968.03;;;18.50;100.00
13867;BME280;7003;46.982;15.248;2023-07-24T00:40:09;96973.41;;;18.50;100.00
13867;BME280;7003;46.982;15.248;2023-07-24T00:42:36;96974.53;;;18.45;100.00
13867;BME280;7003;46.982;15.248;2023-07-24T00:45:04;96965.31;;;18.42;100.00
13867;BME280;7003;46.982;15.248;2023-07-24T00:47:31;96965.72;;;18.48;100.00
13867;BME280;7003;46.982;15.248;2023-07-24T00:49:58;96971.09;;;18.52;100.00
13867;BME280;7003;46.982;15.248;2023-07-24T00:52:29;96968.41;;;18.48;100.00
13867;BME280;7003;46.982;15.248;2023-07-24T00:54:56;96974.94;;;18.51;100.00
13867;BME280;7003;46.982;15.248;2023-07-24T00:57:25;96973.78;;;18.48;100.00
13867;BME280;7003;46.982;15.248;2023-07-24T00:59:52;96969.53;;;18.43;100.00
13867;BME280;7003;46.982;15.248;2023-07-24T01:02:22;96962.22;;;18.40;100.00
13867;BME280;7003;46.982;15.248;2023-07-24T01:04:52;96964.91;;;18.37;100.00
13867;BME280;7003;46.982;15.248;2023-07-24T01:07:20;96955.69;;;18.41;100.00
13867;BME280;7003;46.982;15.248;2023-07-24T01:09:50;96959.50;;;18.37;100.00
13867;BME280;7003;46.982;15.248;2023-07-24T01:12:25;96964.13;;;18.33;100.00
13867;BME280;7003;46.982;15.248;2023-07-24T01:15:04;96966.34;;;18.13;100.00
13867;BME280;7003;46.982;15.248;2023-07-24T01:17:35;96960.16;;;18.02;100.00
13867;BME280;7003;46.982;15.248;2023-07-24T01:20:08;96956.72;;;18.08;100.00
13867;BME280;7003;46.982;15.248;2023-07-24T01:22:41;96963.19;;;17.97;100.00
13867;BME280;7003;46.982;15.248;2023-07-24T01:25:18;96951.28;;;17.98;100.00
13867;BME280;7003;46.982;15.248;2023-07-24T01:27:53;96952.06;;;17.95;100.00
13867;BME280;7003;46.982;15.248;2023-07-24T01:30:21;96943.97;;;17.95;100.00
13867;BME280;7003;46.982;15.248;2023-07-24T01:32:50;96951.66;;;17.96;100.00
13867;BME280;7003;46.982;15.248;2023-07-24T01:35:17;96945.88;;;17.87;100.00
13867;BME280;7003;46.982;15.248;2023-07-24T01:37:48;96936.94;;;17.76;100.00
13867;BME280;7003;46.982;15.248;2023-07-24T01:40:17;96948.09;;;17.75;100.00
13867;BME280;7003;46.982;15.248;2023-07-24T01:42:45;96947.19;;;17.60;100.00
13867;BME280;7003;46.982;15.248;2023-07-24T01:45:16;96949.06;;;17.49;100.00
13867;BME280;7003;46.982;15.248;2023-07-24T01:47:45;96943.81;;;17.63;100.00
13867;BME280;7003;46.982;15.248;2023-07-24T01:50:12;96940.66;;;17.57;100.00
13867;BME280;7003;46.982;15.248;2023-07-24T01:52:39;96934.19;;;17.62;100.00
13867;BME280;7003;46.982;15.248;2023-07-24T01:55:07;96936.00;;;17.51;100.00
13867;BME280;7003;46.982;15.248;2023-07-24T01:57:38;96934.47;;;17.50;100.00
13867;BME280;7003;46.982;15.248;2023-07-24T02:00:06;96936.03;;;17.58;100.00
13867;BME280;7003;46.982;15.248;2023-07-24T02:02:37;96935.22;;;17.50;100.00
13867;BME280;7003;46.982;15.248;2023-07-24T02:05:04;96930.56;;;17.44;100.00
13867;BME280;7003;46.982;15.248;2023-07-24T02:07:32;96922.56;;;17.51;100.00
13867;BME280;7003;46.982;15.248;2023-07-24T02:09:59;96923.00;;;17.60;100.00
13867;BME280;7003;46.982;15.248;2023-07-24T02:12:29;96918.38;;;17.57;100.00
13867;BME280;7003;46.982;15.248;2023-07-24T02:14:58;96923.75;;;17.57;100.00
13867;BME280;7003;46.982;15.248;2023-07-24T02:17:27;96926.78;;;17.48;100.00
13867;BME280;7003;46.982;15.248;2023-07-24T02:19:58;96927.88;;;17.44;100.00
13867;BME280;7003;46.982;15.248;2023-07-24T02:22:25;96922.06;;;17.35;100.00
13867;BME280;7003;46.982;15.248;2023-07-24T02:24:54;96920.88;;;17.25;100.00
13867;BME280;7003;46.982;15.248;2023-07-24T02:27:25;96917.72;;;17.19;100.00
13867;BME280;7003;46.982;15.248;2023-07-24T02:29:53;96915.41;;;17.14;100.00
13867;BME280;7003;46.982;15.248;2023-07-24T02:32:20;96915.72;;;17.06;100.00
13867;BME280;7003;46.982;15.248;2023-07-24T02:34:48;96919.06;;;16.92;100.00
13867;BME280;7003;46.982;15.248;2023-07-24T02:37:20;96925.63;;;16.95;100.00
13867;BME280;7003;46.982;15.248;2023-07-24T02:39:47;96914.41;;;16.89;100.00
13867;BME280;7003;46.982;15.248;2023-07-24T02:42:16;96906.47;;;17.00;100.00
13867;BME280;7003;46.982;15.248;2023-07-24T02:44:46;96898.81;;;17.05;100.00
13867;BME280;7003;46.982;15.248;2023-07-24T02:47:15;96905.78;;;17.10;100.00
13867;BME280;7003;46.982;15.248;2023-07-24T02:49:42;96904.13;;;16.98;100.00
13867;BME280;7003;46.982;15.248;2023-07-24T02:52:09;96905.28;;;16.97;100.00
13867;BME280;7003;46.982;15.248;2023-07-24T02:54:37;96902.25;;;17.02;100.00
13867;BME280;7003;46.982;15.248;2023-07-24T02:57:05;96908.78;;;17.05;100.00
13867;BME280;7003;46.982;15.248;2023-07-24T02:59:34;96906.41;;;16.92;100.00
13867;BME280;7003;46.982;15.248;2023-07-24T03:02:05;96900.59;;;16.87;100.00
13867;BME280;7003;46.982;15.248;2023-07-24T03:04:32;96894.81;;;16.85;100.00
13867;BME280;7003;46.982;15.248;2023-07-24T03:06:59;96898.66;;;16.84;100.00
13867;BME280;7003;46.982;15.248;2023-07-24T03:09:27;96893.38;;;16.95;100.00
13867;BME280;7003;46.982;15.248;2023-07-24T03:11:58;96894.72;;;16.71;100.00
13867;BME280;7003;46.982;15.248;2023-07-24T03:14:25;96899.66;;;16.69;100.00
13867;BME280;7003;46.982;15.248;2023-07-24T03:16:55;96892.31;;;16.62;100.00
13867;BME280;7003;46.982;15.248;2023-07-24T03:19:22;96885.53;;;16.75;100.00
13867;BME280;7003;46.982;15.248;2023-07-24T03:21:50;96883.59;;;16.72;100.00
13867;BME280;7003;46.982;15.248;2023-07-24T03:24:20;96886.97;;;16.66;100.00
13867;BME280;7003;46.982;15.248;2023-07-24T03:26:48;96877.00;;;16.63;100.00
13867;BME280;7003;46.982;15.248;2023-07-24T03:29:19;96874.66;;;16.61;100.00
13867;BME280;7003;46.982;15.248;2023-07-24T03:31:48;96869.56;;;16.52;100.00
13867;BME280;7003;46.982;15.248;2023-07-24T03:34:16;96875.59;;;16.39;100.00
13867;BME280;7003;46.982;15.248;2023-07-24T03:36:46;96877.50;;;16.42;100.00
13867;BME280;7003;46.982;15.248;2023-07-24T03:39:15;96871.06;;;16.46;100.00
13867;BME280;7003;46.982;15.248;2023-07-24T03:41:43;96863.78;;;16.50;100.00
13867;BME280;7003;46.982;15.248;2023-07-24T03:44:12;96868.03;;;16.51;100.00
13867;BME280;7003;46.982;15.248;2023-07-24T03:46:42;96874.22;;;16.55;100.00
13867;BME280;7003;46.982;15.248;2023-07-24T03:49:09;96867.22;;;16.47;100.00
13867;BME280;7003;46.982;15.248;2023-07-24T03:51:40;96869.03;;;16.36;100.00
13867;BME280;7003;46.982;15.248;2023-07-24T03:54:10;96870.16;;;16.35;100.00
13867;BME280;7003;46.982;15.248;2023-07-24T03:56:39;96863.34;;;16.41;100.00
13867;BME280;7003;46.982;15.248;2023-07-24T03:59:09;96877.56;;;16.45;100.00
13867;BME280;7003;46.982;15.248;2023-07-24T04:01:39;96871.75;;;16.40;100.00
13867;BME280;7003;46.982;15.248;2023-07-24T04:04:09;96870.47;;;16.27;100.00
13867;BME280;7003;46.982;15.248;2023-07-24T04:06:37;96867.53;;;16.39;100.00
13867;BME280;7003;46.982;15.248;2023-07-24T04:09:09;96867.16;;;16.40;100.00
13867;BME280;7003;46.982;15.248;2023-07-24T04:11:41;96864.47;;;16.40;100.00
13867;BME280;7003;46.982;15.248;2023-07-24T04:14:09;96864.91;;;16.46;100.00
13867;BME280;7003;46.982;15.248;2023-07-24T04:16:37;96863.94;;;16.61;100.00
13867;BME280;7003;46.982;15.248;2023-07-24T04:19:11;96865.56;;;16.73;100.00
13867;BME280;7003;46.982;15.248;2023-07-24T04:21:39;96873.91;;;16.61;100.00
13867;BME280;7003;46.982;15.248;2023-07-24T04:24:08;96865.34;;;16.51;100.00
13867;BME280;7003;46.982;15.248;2023-07-24T04:26:40;96864.25;;;16.56;100.00
13867;BME280;7003;46.982;15.248;2023-07-24T04:29:08;96875.47;;;16.65;100.00
13867;BME280;7003;46.982;15.248;2023-07-24T04:31:37;96881.75;;;16.80;100.00
13867;BME280;7003;46.982;15.248;2023-07-24T04:34:05;96876.44;;;16.87;100.00
13867;BME280;7003;46.982;15.248;2023-07-24T04:36:35;96878.31;;;16.83;100.00
13867;BME280;7003;46.982;15.248;2023-07-24T04:39:03;96867.56;;;16.83;100.00
13867;BME280;7003;46.982;15.248;2023-07-24T04:41:32;96859.91;;;16.88;100.00
13867;BME280;7003;46.982;15.248;2023-07-24T04:44:03;96857.22;;;16.85;100.00
13867;BME280;7003;46.982;15.248;2023-07-24T04:46:31;96856.53;;;16.95;100.00
13867;BME280;7003;46.982;15.248;2023-07-24T04:49:02;96866.94;;;17.00;100.00
13867;BME280;7003;46.982;15.248;2023-07-24T04:51:35;96875.41;;;17.02;100.00
13867;BME280;7003;46.982;15.248;2023-07-24T04:54:02;96867.38;;;17.13;100.00
13867;BME280;7003;46.982;15.248;2023-07-24T04:56:31;96858.97;;;17.14;100.00
13867;BME280;7003;46.982;15.248;2023-07-24T04:58:59;96859.72;;;17.15;100.00
13867;BME280;7003;46.982;15.248;2023-07-24T05:01:37;96869.84;;;17.36;100.00
13867;BME280;7003;46.982;15.248;2023-07-24T05:04:05;96869.28;;;17.74;100.00
13867;BME280;7003;46.982;15.248;2023-07-24T05:06:38;96866.38;;;18.04;100.00
13867;BME280;7003;46.982;15.248;2023-07-24T05:09:07;96875.66;;;18.35;100.00
13867;BME280;7003;46.982;15.248;2023-07-24T05:11:37;96873.78;;;18.60;100.00
13867;BME280;7003;46.982;15.248;2023-07-24T05:14:06;96868.03;;;18.69;100.00
13867;BME280;7003;46.982;15.248;2023-07-24T05:16:37;96880.00;;;18.96;100.00
13867;BME280;7003;46.982;15.248;2023-07-24T05:19:05;96873.41;;;19.26;100.00
13867;BME280;7003;46.982;15.248;2023-07-24T05:21:38;96873.38;;;19.43;100.00
13867;BME280;7003;46.982;15.248;2023-07-24T05:24:06;96857.88;;;19.79;100.00
13867;BME280;7003;46.982;15.248;2023-07-24T05:26:38;96847.28;;;20.13;100.00
13867;BME280;7003;46.982;15.248;2023-07-24T05:29:06;96841.06;;;20.23;100.00
13867;BME280;7003;46.982;15.248;2023-07-24T05:31:34;96826.63;;;20.55;100.00
13867;BME280;7003;46.982;15.248;2023-07-24T05:34:06;96827.63;;;20.75;100.00
13867;BME280;7003;46.982;15.248;2023-07-24T05:36:35;96831.34;;;20.92;100.00
13867;BME280;7003;46.982;15.248;2023-07-24T05:39:09;96831.94;;;21.10;100.00
13867;BME280;7003;46.982;15.248;2023-07-24T05:41:37;96835.84;;;21.46;100.00
13867;BME280;7003;46.982;15.248;2023-07-24T05:44:05;96834.56;;;21.58;100.00
13867;BME280;7003;46.982;15.248;2023-07-24T05:46:33;96845.09;;;21.49;100.00
13867;BME280;7003;46.982;15.248;2023-07-24T05:49:02;96853.06;;;21.63;100.00
13867;BME280;7003;46.982;15.248;2023-07-24T05:51:30;96844.97;;;21.94;100.00
13867;BME280;7003;46.982;15.248;2023-07-24T05:54:00;96830.16;;;22.32;100.00
13867;BME280;7003;46.982;15.248;2023-07-24T05:56:34;96825.06;;;22.61;100.00
13867;BME280;7003;46.982;15.248;2023-07-24T05:59:02;96823.84;;;22.65;100.00
13867;BME280;7003;46.982;15.248;2023-07-24T06:01:33;96816.22;;;22.84;100.00
13867;BME280;7003;46.982;15.248;2023-07-24T06:04:01;96816.78;;;22.72;100.00
13867;BME280;7003;46.982;15.248;2023-07-24T06:06:29;96817.84;;;23.01;100.00
13867;BME280;7003;46.982;15.248;2023-07-24T06:08:59;96825.75;;;22.69;100.00
13867;BME280;7003;46.982;15.248;2023-07-24T06:11:33;96829.16;;;22.73;100.00
13867;BME280;7003;46.982;15.248;2023-07-24T06:14:01;96829.09;;;22.53;100.00
13867;BME280;7003;46.982;15.248;2023-07-24T06:16:32;96817.47;;;22.52;100.00
13867;BME280;7003;46.982;15.248;2023-07-24T06:19:00;96820.09;;;22.59;100.00
13867;BME280;7003;46.982;15.248;2023-07-24T06:21:29;96831.38;;;22.54;100.00
13867;BME280;7003;46.982;15.248;2023-07-24T06:24:00;96825.22;;;23.00;100.00
13867;BME280;7003;46.982;15.248;2023-07-24T06:26:30;96825.91;;;23.48;100.00
13867;BME280;7003;46.982;15.248;2023-07-24T06:29:02;96825.66;;;23.62;100.00
13867;BME280;7003;46.982;15.248;2023-07-24T06:31:32;96821.31;;;24.04;100.00
13867;BME280;7003;46.982;15.248;2023-07-24T06:33:59;96824.41;;;23.86;100.00
13867;BME280;7003;46.982;15.248;2023-07-24T06:36:29;96821.84;;;23.79;100.00
13867;BME280;7003;46.982;15.248;2023-07-24T06:39:00;96819.63;;;23.74;100.00
13867;BME280;7003;46.982;15.248;2023-07-24T06:41:28;96821.78;;;23.83;100.00
13867;BME280;7003;46.982;15.248;2023-07-24T06:43:58;96819.47;;;24.17;100.00
13867;BME280;7003;46.982;15.248;2023-07-24T06:46:27;96814.50;;;24.15;100.00
13867;BME280;7003;46.982;15.248;2023-07-24T06:48:57;96807.53;;;24.14;100.00
13867;BME280;7003;46.982;15.248;2023-07-24T06:51:27;96807.91;;;24.49;100.00
13867;BME280;7003;46.982;15.248;2023-07-24T06:53:56;96806.03;;;24.30;100.00
13867;BME280;7003;46.982;15.248;2023-07-24T06:56:26;96799.69;;;24.36;100.00
13867;BME280;7003;46.982;15.248;2023-07-24T06:58:53;96792.19;;;24.40;100.00
13867;BME280;7003;46.982;15.248;2023-07-24T07:01:23;96785.94;;;24.60;100.00
13867;BME280;7003;46.982;15.248;2023-07-24T07:03:54;96787.75;;;24.79;100.00
13867;BME280;7003;46.982;15.248;2023-07-24T07:06:21;96786.69;;;24.76;100.00
13867;BME280;7003;46.982;15.248;2023-07-24T07:08:52;96774.91;;;25.12;100.00
13867;BME280;7003;46.982;15.248;2023-07-24T07:11:19;96778.44;;;25.25;100.00
13867;BME280;7003;46.982;15.248;2023-07-24T07:13:48;96782.22;;;25.44;100.00
13867;BME280;7003;46.982;15.248;2023-07-24T07:16:18;96776.53;;;25.38;100.00
13867;BME280;7003;46.982;15.248;2023-07-24T07:18:48;96776.63;;;25.63;100.00
13867;BME280;7003;46.982;15.248;2023-07-24T07:21:19;96771.97;;;25.77;100.00
13867;BME280;7003;46.982;15.248;2023-07-24T07:23:46;96769.94;;;25.52;100.00
13867;BME280;7003;46.982;15.248;2023-07-24T07:26:14;96763.81;;;25.89;100.00
13867;BME280;7003;46.982;15.248;2023-07-24T07:28:41;96766.50;;;25.64;100.00
13867;BME280;7003;46.982;15.248;2023-07-24T07:31:10;96765.06;;;25.59;100.00
13867;BME280;7003;46.982;15.248;2023-07-24T07:33:38;96768.69;;;25.11;100.00
13867;BME280;7003;46.982;15.248;2023-07-24T07:36:06;96760.81;;;25.29;100.00
13867;BME280;7003;46.982;15.248;2023-07-24T07:38:35;96763.13;;;25.31;100.00
13867;BME280;7003;46.982;15.248;2023-07-24T07:41:06;96747.16;;;25.17;100.00
13867;BME280;7003;46.982;15.248;2023-07-24T07:43:36;96742.34;;;25.37;100.00
13867;BME280;7003;46.982;15.248;2023-07-24T07:46:04;96741.06;;;25.13;100.00
13867;BME280;7003;46.982;15.248;2023-07-24T07:48:31;96737.31;;;25.36;100.00
13867;BME280;7003;46.982;15.248;2023-07-24T07:51:01;96731.31;;;25.70;100.00
13867;BME280;7003;46.982;15.248;2023-07-24T07:53:32;96716.94;;;25.94;100.00
13867;BME280;7003;46.982;15.248;2023-07-24T07:56:01;96731.78;;;26.06;100.00
13867;BME280;7003;46.982;15.248;2023-07-24T07:58:31;96721.72;;;26.03;100.00
13867;BME280;7003;46.982;15.248;2023-07-24T08:01:02;96712.16;;;25.86;100.00
13867;BME280;7003;46.982;15.248;2023-07-24T08:03:30;96709.19;;;25.67;100.00
13867;BME280;7003;46.982;15.248;2023-07-24T08:05:57;96714.56;;;25.84;100.00
13867;BME280;7003;46.982;15.248;2023-07-24T08:08:27;96712.72;;;25.93;100.00
13867;BME280;7003;46.982;15.248;2023-07-24T08:10:55;96713.56;;;26.16;100.00
13867;BME280;7003;46.982;15.248;2023-07-24T08:13:26;96721.53;;;26.23;100.00
13867;BME280;7003;46.982;15.248;2023-07-24T08:15:53;96711.28;;;26.39;100.00
13867;BME280;7003;46.982;15.248;2023-07-24T08:18:21;96711.84;;;26.69;100.00
13867;BME280;7003;46.982;15.248;2023-07-24T08:20:49;96708.25;;;27.06;100.00
13867;BME280;7003;46.982;15.248;2023-07-24T08:23:16;96707.22;;;27.35;100.00
13867;BME280;7003;46.982;15.248;2023-07-24T08:25:51;96714.19;;;27.36;100.00
13867;BME280;7003;46.982;15.248;2023-07-24T08:28:19;96710.59;;;27.17;100.00
13867;BME280;7003;46.982;15.248;2023-07-24T08:30:55;96713.56;;;27.32;100.00
13867;BME280;7003;46.982;15.248;2023-07-24T08:33:24;96715.88;;;27.33;100.00
13867;BME280;7003;46.982;15.248;2023-07-24T08:36:00;96726.25;;;26.69;100.00
13867;BME280;7003;46.982;15.248;2023-07-24T08:38:30;96708.69;;;26.70;100.00
13867;BME280;7003;46.982;15.248;2023-07-24T08:41:02;96714.03;;;27.08;100.00
13867;BME280;7003;46.982;15.248;2023-07-24T08:43:51;96703.22;;;27.48;100.00
13867;BME280;7003;46.982;15.248;2023-07-24T08:46:22;96701.38;;;27.45;100.00
13867;BME280;7003;46.982;15.248;2023-07-24T08:48:49;96690.31;;;27.80;100.00
13867;BME280;7003;46.982;15.248;2023-07-24T08:51:17;96692.63;;;28.21;100.00
13867;BME280;7003;46.982;15.248;2023-07-24T08:53:48;96678.09;;;28.70;100.00
13867;BME280;7003;46.982;15.248;2023-07-24T08:56:15;96674.78;;;28.93;100.00
13867;BME280;7003;46.982;15.248;2023-07-24T08:58:46;96670.97;;;29.00;100.00
13867;BME280;7003;46.982;15.248;2023-07-24T09:01:16;96665.50;;;29.00;100.00
13867;BME280;7003;46.982;15.248;2023-07-24T09:03:45;96653.31;;;29.10;100.00
13867;BME280;7003;46.982;15.248;2023-07-24T09:06:14;96656.44;;;29.45;100.00
13867;BME280;7003;46.982;15.248;2023-07-24T09:08:44;96652.22;;;29.35;100.00
13867;BME280;7003;46.982;15.248;2023-07-24T09:11:14;96651.97;;;28.87;100.00
13867;BME280;7003;46.982;15.248;2023-07-24T09:13:42;96639.31;;;29.17;100.00
13867;BME280;7003;46.982;15.248;2023-07-24T09:16:21;96650.56;;;28.73;100.00
13867;BME280;7003;46.982;15.248;2023-07-24T09:18:51;96647.25;;;28.69;100.00
13867;BME280;7003;46.982;15.248;2023-07-24T09:21:28;96631.88;;;28.90;100.00
13867;BME280;7003;46.982;15.248;2023-07-24T09:23:56;96633.56;;;28.97;100.00
13867;BME280;7003;46.982;15.248;2023-07-24T09:26:24;96635.38;;;29.09;100.00
13867;BME280;7003;46.982;15.248;2023-07-24T09:28:52;96631.34;;;29.28;100.00
13867;BME280;7003;46.982;15.248;2023-07-24T09:31:34;96632.28;;;29.25;100.00
13867;BME280;7003;46.982;15.248;2023-07-24T09:34:03;96628.47;;;29.74;100.00
13867;BME280;7003;46.982;15.248;2023-07-24T09:36:37;96612.56;;;29.96;100.00
13867;BME280;7003;46.982;15.248;2023-07-24T09:39:08;96603.19;;;29.79;100.00
13867;BME280;7003;46.982;15.248;2023-07-24T09:41:38;96609.38;;;29.56;97.32
13867;BME280;7003;46.982;15.248;2023-07-24T09:44:06;96608.75;;;28.73;100.00
13867;BME280;7003;46.982;15.248;2023-07-24T09:46:34;96604.22;;;28.61;100.00
13867;BME280;7003;46.982;15.248;2023-07-24T09:49:05;96604.50;;;28.26;100.00
13867;BME280;7003;46.982;15.248;2023-07-24T09:51:34;96601.63;;;28.30;100.00
13867;BME280;7003;46.982;15.248;2023-07-24T09:54:07;96612.25;;;28.28;100.00
13867;BME280;7003;46.982;15.248;2023-07-24T09:56:41;96600.13;;;27.71;100.00
13867;BME280;7003;46.982;15.248;2023-07-24T09:59:13;96598.69;;;27.57;100.00
13867;BME280;7003;46.982;15.248;2023-07-24T10:01:40;96592.84;;;27.37;100.00
13867;BME280;7003;46.982;15.248;2023-07-24T10:04:13;96588.28;;;27.74;100.00
13867;BME280;7003;46.982;15.248;2023-07-24T10:06:44;96591.06;;;27.52;100.00
13867;BME280;7003;46.982;15.248;2023-07-24T10:09:12;96595.88;;;27.08;100.00
13867;BME280;7003;46.982;15.248;2023-07-24T10:11:40;96589.28;;;26.96;100.00
13867;BME280;7003;46.982;15.248;2023-07-24T10:14:07;96599.63;;;27.01;100.00
13867;BME280;7003;46.982;15.248;2023-07-24T10:16:36;96596.31;;;26.85;100.00
13867;BME280;7003;46.982;15.248;2023-07-24T10:19:14;96590.81;;;26.97;100.00
13867;BME280;7003;46.982;15.248;2023-07-24T10:21:44;96586.78;;;26.89;100.00
13867;BME280;7003;46.982;15.248;2023-07-24T10:24:13;96581.91;;;27.06;100.00
13867;BME280;7003;46.982;15.248;2023-07-24T10:26:41;96579.09;;;27.18;100.00
13867;BME280;7003;46.982;15.248;2023-07-24T10:29:10;96585.63;;;27.21;100.00
13867;BME280;7003;46.982;15.248;2023-07-24T10:31:39;96585.63;;;26.90;100.00
13867;BME280;7003;46.982;15.248;2023-07-24T10:34:09;96574.28;;;26.57;100.00
13867;BME280;7003;46.982;15.248;2023-07-24T10:36:41;96578.38;;;26.53;100.00
13867;BME280;7003;46.982;15.248;2023-07-24T10:39:14;96566.94;;;26.67;100.00
13867;BME280;7003;46.982;15.248;2023-07-24T10:41:44;96572.91;;;26.53;100.00
13867;BME280;7003;46.982;15.248;2023-07-24T10:44:12;96562.44;;;26.51;100.00
13867;BME280;7003;46.982;15.248;2023-07-24T10:46:40;96575.00;;;26.14;100.00
13867;BME280;7003;46.982;15.248;2023-07-24T10:49:11;96549.38;;;26.12;100.00
13867;BME280;7003;46.982;15.248;2023-07-24T10:51:38;96554.25;;;26.29;100.00
13867;BME280;7003;46.982;15.248;2023-07-24T10:54:09;96533.31;;;26.26;100.00
13867;BME280;7003;46.982;15.248;2023-07-24T10:56:39;96519.00;;;26.35;100.00
13867;BME280;7003;46.982;15.248;2023-07-24T10:59:06;96505.94;;;26.17;100.00
13867;BME280;7003;46.982;15.248;2023-07-24T11:01:36;96497.19;;;26.35;100.00
13867;BME280;7003;46.982;15.248;2023-07-24T11:04:07;96501.06;;;26.12;100.00
13867;BME280;7003;46.982;15.248;2023-07-24T11:06:40;96520.91;;;26.13;100.00
13867;BME280;7003;46.982;15.248;2023-07-24T11:09:09;96510.34;;;26.15;100.00
13867;BME280;7003;46.982;15.248;2023-07-24T11:11:39;96506.06;;;26.26;100.00
13867;BME280;7003;46.982;15.248;2023-07-24T11:14:13;96518.84;;;26.17;100.00
13867;BME280;7003;46.982;15.248;2023-07-24T11:16:48;96528.78;;;26.45;100.00
13867;BME280;7003;46.982;15.248;2023-07-24T11:19:22;96529.75;;;26.82;100.00
13867;BME280;7003;46.982;15.248;2023-07-24T11:21:50;96532.78;;;27.06;100.00
13867;BME280;7003;46.982;15.248;2023-07-24T11:24:18;96530.94;;;27.43;100.00
13867;BME280;7003;46.982;15.248;2023-07-24T11:26:46;96526.34;;;27.80;100.00
13867;BME280;7003;46.982;15.248;2023-07-24T11:29:15;96510.28;;;28.00;100.00
13867;BME280;7003;46.982;15.248;2023-07-24T11:31:53;96510.03;;;28.25;100.00
13867;BME280;7003;46.982;15.248;2023-07-24T11:34:22;96518.94;;;28.71;100.00
13867;BME280;7003;46.982;15.248;2023-07-24T11:36:52;96509.38;;;29.18;100.00
13867;BME280;7003;46.982;15.248;2023-07-24T11:39:23;96500.91;;;29.07;100.00
13867;BME280;7003;46.982;15.248;2023-07-24T11:41:53;96493.84;;;29.24;93.05
13867;BME280;7003;46.982;15.248;2023-07-24T11:44:24;96486.41;;;29.16;67.20
13867;BME280;7003;46.982;15.248;2023-07-24T11:47:00;96477.75;;;29.17;62.63
13867;BME280;7003;46.982;15.248;2023-07-24T11:49:28;96483.72;;;29.06;64.29
13867;BME280;7003;46.982;15.248;2023-07-24T11:52:04;96483.78;;;29.21;58.96
13867;BME280;7003;46.982;15.248;2023-07-24T11:54:34;96472.78;;;29.39;60.36
13867;BME280;7003;46.982;15.248;2023-07-24T11:57:02;96463.97;;;29.59;53.56
13867;BME280;7003;46.982;15.248;2023-07-24T11:59:37;96463.00;;;29.71;54.99
13867;BME280;7003;46.982;15.248;2023-07-24T12:02:05;96448.88;;;29.64;65.90
13867;BME280;7003;46.982;15.248;2023-07-24T12:04:36;96426.38;;;29.60;63.79
13867;BME280;7003;46.982;15.248;2023-07-24T12:07:07;96414.25;;;29.52;73.76
13867;BME280;7003;46.982;15.248;2023-07-24T12:09:39;96411.84;;;29.44;56.74
13867;BME280;7003;46.982;15.248;2023-07-24T12:12:08;96424.41;;;29.27;57.08
13867;BME280;7003;46.982;15.248;2023-07-24T12:14:43;96404.75;;;29.05;57.13
13867;BME280;7003;46.982;15.248;2023-07-24T12:17:10;96415.16;;;29.01;51.23
13867;BME280;7003;46.982;15.248;2023-07-24T12:19:40;96463.56;;;28.86;52.63
13867;BME280;7003;46.982;15.248;2023-07-24T12:22:07;96439.28;;;28.69;58.12
13867;BME280;7003;46.982;15.248;2023-07-24T12:24:34;96462.09;;;28.57;56.33
13867;BME280;7003;46.982;15.248;2023-07-24T12:27:03;96457.38;;;28.58;63.51
13867;BME280;7003;46.982;15.248;2023-07-24T12:29:33;96419.72;;;28.53;53.58
13867;BME280;7003;46.982;15.248;2023-07-24T12:32:01;96424.72;;;28.54;53.57
13867;BME280;7003;46.982;15.248;2023-07-24T12:34:28;96422.41;;;28.71;52.69
13867;BME280;7003;46.982;15.248;2023-07-24T12:36:59;96404.78;;;28.63;55.68
13867;BME280;7003;46.982;15.248;2023-07-24T12:39:26;96389.09;;;28.73;57.34
13867;BME280;7003;46.982;15.248;2023-07-24T12:41:53;96366.91;;;28.70;56.32
13867;BME280;7003;46.982;15.248;2023-07-24T12:44:24;96362.34;;;28.77;53.57
13867;BME280;7003;46.982;15.248;2023-07-24T12:46:53;96342.56;;;28.73;55.82
13867;BME280;7003;46.982;15.248;2023-07-24T12:49:20;96345.97;;;28.58;53.45
13867;BME280;7003;46.982;15.248;2023-07-24T12:51:50;96355.13;;;28.55;51.45
13867;BME280;7003;46.982;15.248;2023-07-24T12:54:19;96363.13;;;28.59;61.00
13867;BME280;7003;46.982;15.248;2023-07-24T12:56:48;96366.91;;;28.80;57.53
13867;BME280;7003;46.982;15.248;2023-07-24T12:59:18;96362.00;;;28.84;55.02
13867;BME280;7003;46.982;15.248;2023-07-24T13:01:46;96355.47;;;28.81;59.18